XSA weather

Tappahannock-Essex County Airport
Tappahannock, Virginia, United States

Public forecast

Using degrees Fahrenheit for public forecast. Weather courtesy of forecast.io.

Current aviation weather report (METAR) for Tappahannock-Essex County Airport

Retrieved 2019/10/20 07:35 UTC (20 minutes ago):

KXSA 200735Z AUTO 00000KT 10SM SCT047 BKN055 BKN070 13/13 A2995 RMK AO2 T01250125

Closest aviation forecast (TAF) to Tappahannock-Essex County Airport

Closest forecast is Richmond International Airport, 29.4 nm (54.4 km) SW. Retrieved 2019/10/20 06:42 UTC (1 hour ago):

TAF KRIC 200540Z 2006/2106 06003KT P6SM VCSH SCT025 OVC040 TEMPO 2007/2009 BKN025 FM200900 05005KT 4SM -RA OVC025 FM201100 05007KT 3SM RA BR OVC008 FM201400 02009KT 4SM -RA BR OVC006 FM201800 01011G20KT P6SM OVC006 FM210400 34005KT P6SM BKN010